createdAt,value
2023-10-10T00:02:22.165Z,71.74
2023-10-10T00:04:51.185Z,71.95
2023-10-10T00:07:20.305Z,72.05
2023-10-10T00:09:47.998Z,72.04
2023-10-10T00:12:28.107Z,72.29
2023-10-10T00:15:51.982Z,72.26
2023-10-10T00:18:44.917Z,72.38
2023-10-10T00:21:21.765Z,72.11
2023-10-10T00:23:49.119Z,72.29
2023-10-10T00:26:21.130Z,72.56
2023-10-10T00:28:55.747Z,72.94
2023-10-10T00:31:28.506Z,73.06
2023-10-10T00:33:56.699Z,73.02
2023-10-10T00:36:29.470Z,72.93
2023-10-10T00:39:17.208Z,73.26
2023-10-10T00:41:50.834Z,73.26
2023-10-10T00:44:19.067Z,73.45
2023-10-10T00:46:49.178Z,73.56
2023-10-10T00:49:18.452Z,73.70
2023-10-10T00:51:48.740Z,73.49
2023-10-10T00:54:23.029Z,73.75
2023-10-10T00:56:57.560Z,73.55
2023-10-10T00:59:44.065Z,73.70
2023-10-10T01:02:18.297Z,73.49
2023-10-10T01:04:54.923Z,73.76
2023-10-10T01:07:24.377Z,73.61
2023-10-10T01:09:58.786Z,73.62
2023-10-10T01:12:37.074Z,73.81
2023-10-10T01:15:10.095Z,74.14
2023-10-10T01:17:39.653Z,74.12
2023-10-10T01:20:31.000Z,74.23
2023-10-10T01:22:58.978Z,74.13
2023-10-10T01:25:29.295Z,73.80
2023-10-10T01:28:02.996Z,73.97
2023-10-10T01:30:58.854Z,74.00
2023-10-10T01:33:37.760Z,74.18
2023-10-10T01:36:20.309Z,74.34
2023-10-10T01:39:01.151Z,74.37
2023-10-10T01:41:49.687Z,74.20
2023-10-10T01:44:19.983Z,74.06
2023-10-10T01:46:47.795Z,74.08
2023-10-10T01:49:21.025Z,74.01
2023-10-10T01:52:00.872Z,74.07
2023-10-10T01:54:42.269Z,73.95
2023-10-10T01:57:17.413Z,73.74
2023-10-10T01:59:45.378Z,73.65
2023-10-10T02:02:19.926Z,73.71
2023-10-10T02:04:49.139Z,73.85
2023-10-10T02:07:23.100Z,73.81
2023-10-10T02:10:00.675Z,73.91
2023-10-10T02:12:28.504Z,74.09
2023-10-10T02:14:55.969Z,74.18
2023-10-10T02:17:26.278Z,73.83
2023-10-10T02:20:20.927Z,74.15
2023-10-10T02:23:08.339Z,74.46
2023-10-10T02:25:36.316Z,74.70
2023-10-10T02:28:18.997Z,74.84
2023-10-10T02:30:50.699Z,74.57
2023-10-10T02:33:25.065Z,74.88
2023-10-10T02:35:56.390Z,75.09
2023-10-10T02:38:41.049Z,75.22
2023-10-10T02:41:22.436Z,75.44
2023-10-10T02:43:57.294Z,75.63
2023-10-10T02:46:40.308Z,75.70
2023-10-10T02:49:14.455Z,75.78
2023-10-10T02:51:49.632Z,76.22
2023-10-10T02:54:38.308Z,76.44
2023-10-10T02:57:25.487Z,76.67
2023-10-10T02:59:54.968Z,76.54
2023-10-10T03:02:30.071Z,76.80
2023-10-10T03:05:02.266Z,77.07
2023-10-10T03:07:30.906Z,77.29
2023-10-10T03:10:15.548Z,77.68
2023-10-10T03:12:43.274Z,77.64
2023-10-10T03:15:30.146Z,77.61
2023-10-10T03:18:09.675Z,78.05
2023-10-10T03:20:49.447Z,78.17
2023-10-10T03:23:17.098Z,78.23
2023-10-10T03:25:47.906Z,78.15
2023-10-10T03:28:28.134Z,78.11
2023-10-10T03:31:26.216Z,78.47
2023-10-10T03:34:26.492Z,78.81
2023-10-10T03:37:26.327Z,78.84
2023-10-10T03:40:17.145Z,78.54
2023-10-10T03:43:03.502Z,78.60
2023-10-10T03:45:49.829Z,78.83
2023-10-10T03:48:35.925Z,78.99
2023-10-10T03:51:22.168Z,78.94
2023-10-10T03:54:08.414Z,78.78
2023-10-10T03:56:54.464Z,78.92
2023-10-10T03:59:40.930Z,79.30
2023-10-10T04:02:27.318Z,79.42
2023-10-10T04:08:06.411Z,79.24
2023-10-10T04:10:52.680Z,79.19
2023-10-10T04:13:38.740Z,79.29
2023-10-10T04:16:27.825Z,79.39
2023-10-10T04:19:14.310Z,79.03
2023-10-10T04:22:00.620Z,79.01
2023-10-10T04:24:46.612Z,79.29
2023-10-10T04:27:32.709Z,79.21
2023-10-10T04:30:18.961Z,79.03
2023-10-10T04:33:04.990Z,78.83
2023-10-10T04:35:51.299Z,78.84
2023-10-10T04:38:54.132Z,78.74
2023-10-10T04:41:40.165Z,79.00
2023-10-10T04:44:26.510Z,78.68
2023-10-10T04:47:12.712Z,78.37
2023-10-10T04:49:58.922Z,78.22
2023-10-10T04:52:45.294Z,78.35
2023-10-10T04:55:31.487Z,78.01
2023-10-10T04:58:17.718Z,77.60
2023-10-10T05:01:04.077Z,77.43
2023-10-10T05:03:50.189Z,77.31
2023-10-10T05:06:36.584Z,77.09
2023-10-10T05:09:22.876Z,76.59
2023-10-10T05:12:08.962Z,75.74
2023-10-10T05:14:55.146Z,75.24
2023-10-10T05:17:41.315Z,74.72
2023-10-10T05:20:27.764Z,74.29
2023-10-10T05:23:14.003Z,73.76
2023-10-10T05:25:42.753Z,73.33
2023-10-10T05:28:12.150Z,72.76
2023-10-10T05:30:45.391Z,72.37
2023-10-10T05:33:14.128Z,71.83
2023-10-10T05:35:49.115Z,71.52
2023-10-10T05:38:21.237Z,71.27
2023-10-10T05:40:48.813Z,71.13
2023-10-10T05:43:27.399Z,70.95
2023-10-10T05:45:55.687Z,70.72
2023-10-10T05:48:23.448Z,70.22
2023-10-10T05:50:50.920Z,69.79
2023-10-10T05:53:18.629Z,69.74
2023-10-10T05:55:52.357Z,69.50
2023-10-10T05:58:22.465Z,69.31
2023-10-10T06:00:53.819Z,69.34
2023-10-10T06:03:22.784Z,69.30
2023-10-10T06:05:51.625Z,69.07
2023-10-10T06:08:19.176Z,69.09
2023-10-10T06:10:46.699Z,68.90
2023-10-10T06:13:14.112Z,68.44
2023-10-10T06:15:41.651Z,67.87
2023-10-10T06:18:15.506Z,67.63
2023-10-10T06:20:54.788Z,67.70
2023-10-10T06:23:34.859Z,67.61
2023-10-10T06:26:03.708Z,67.71
2023-10-10T06:28:37.261Z,67.79
2023-10-10T06:31:11.869Z,67.89
2023-10-10T06:33:42.817Z,67.93
2023-10-10T06:36:40.105Z,67.78
2023-10-10T06:39:10.476Z,67.74
2023-10-10T06:41:40.570Z,67.62
2023-10-10T06:44:27.062Z,67.71
2023-10-10T06:46:56.973Z,67.28
2023-10-10T06:49:25.071Z,67.12
2023-10-10T06:51:56.817Z,66.50
2023-10-10T06:54:30.624Z,66.50
2023-10-10T06:57:01.262Z,66.20
2023-10-10T06:59:29.500Z,66.01
2023-10-10T07:02:16.980Z,65.34
2023-10-10T07:04:45.001Z,65.25
2023-10-10T07:07:14.951Z,64.91
2023-10-10T07:09:43.900Z,64.73
2023-10-10T07:12:12.230Z,65.15
2023-10-10T07:14:42.455Z,65.36
2023-10-10T07:17:13.607Z,65.38
2023-10-10T07:20:03.843Z,65.74
2023-10-10T07:22:35.739Z,65.43
2023-10-10T07:25:09.026Z,65.67
2023-10-10T07:27:41.147Z,65.57
2023-10-10T07:30:20.588Z,65.64
2023-10-10T07:32:52.320Z,65.89
2023-10-10T07:35:27.326Z,65.91
2023-10-10T07:38:01.165Z,65.89
2023-10-10T07:40:32.700Z,65.58
2023-10-10T07:43:01.586Z,65.62
2023-10-10T07:45:36.002Z,65.18
2023-10-10T07:48:11.162Z,64.98
2023-10-10T07:50:57.976Z,64.65
2023-10-10T07:53:35.110Z,64.27
2023-10-10T07:56:06.504Z,63.78
2023-10-10T07:58:58.548Z,63.45
2023-10-10T08:01:28.900Z,63.41
2023-10-10T08:03:57.381Z,63.23
2023-10-10T08:06:28.976Z,62.95
2023-10-10T08:09:15.938Z,62.66
2023-10-10T08:11:47.701Z,62.29
2023-10-10T08:14:20.177Z,62.19
2023-10-10T08:16:51.684Z,62.04
2023-10-10T08:19:19.644Z,61.24
2023-10-10T08:21:51.144Z,60.44
2023-10-10T08:24:22.254Z,59.62
2023-10-10T08:26:54.268Z,59.18
2023-10-10T08:29:28.857Z,59.37
2023-10-10T08:31:59.563Z,58.86
2023-10-10T08:34:27.157Z,58.50
2023-10-10T08:37:04.489Z,58.27
2023-10-10T08:39:37.982Z,58.27
2023-10-10T08:42:07.069Z,57.74
2023-10-10T08:44:38.104Z,57.57
2023-10-10T08:47:17.513Z,57.42
2023-10-10T08:49:48.806Z,57.09
2023-10-10T08:52:18.591Z,55.95
2023-10-10T08:54:46.046Z,55.34
2023-10-10T08:57:13.833Z,53.63
2023-10-10T08:59:44.059Z,53.16
2023-10-10T09:02:17.887Z,52.43
2023-10-10T09:07:29.342Z,49.99
2023-10-10T09:10:06.272Z,48.78
2023-10-10T09:12:35.537Z,47.32
2023-10-10T09:15:14.865Z,46.58
2023-10-10T09:17:43.203Z,45.77
2023-10-10T09:20:19.478Z,45.13
2023-10-10T09:22:53.144Z,43.90
2023-10-10T09:25:21.402Z,43.29
2023-10-10T09:28:09.410Z,42.84
2023-10-10T09:30:46.354Z,41.33
2023-10-10T09:33:31.292Z,41.04
2023-10-10T09:36:21.300Z,39.95
2023-10-10T09:38:49.667Z,39.90
2023-10-10T09:41:27.713Z,39.59
2023-10-10T09:44:24.356Z,39.37
2023-10-10T09:47:08.909Z,38.78
2023-10-10T09:49:53.506Z,38.08
2023-10-10T09:52:43.621Z,36.96
2023-10-10T09:55:15.937Z,37.29
2023-10-10T09:58:17.348Z,36.55
2023-10-10T10:00:44.891Z,35.29
2023-10-10T10:03:25.959Z,34.81
2023-10-10T10:06:29.046Z,34.46
2023-10-10T10:09:20.853Z,33.71
2023-10-10T10:12:21.415Z,31.68
2023-10-10T10:15:03.739Z,31.70
2023-10-10T10:18:45.955Z,32.51
2023-10-10T10:21:31.924Z,33.78
2023-10-10T10:24:18.073Z,34.31
2023-10-10T10:26:46.241Z,34.17
2023-10-10T10:29:23.911Z,33.21
2023-10-10T10:31:53.348Z,33.61
2023-10-10T10:34:30.113Z,34.27
2023-10-10T10:37:04.595Z,34.53
2023-10-10T10:39:36.492Z,34.76
2023-10-10T10:42:13.651Z,35.01
2023-10-10T10:45:00.179Z,34.92
2023-10-10T10:47:39.405Z,34.72
2023-10-10T10:50:18.898Z,35.00
2023-10-10T10:52:57.859Z,35.50
2023-10-10T10:55:29.298Z,36.02
2023-10-10T10:58:19.576Z,36.71
2023-10-10T11:01:01.962Z,37.51
2023-10-10T11:03:36.911Z,37.85
2023-10-10T11:06:09.215Z,38.02
2023-10-10T11:09:07.110Z,38.35
2023-10-10T11:11:34.616Z,38.75
2023-10-10T11:14:26.590Z,39.30
2023-10-10T11:17:00.199Z,39.72
2023-10-10T11:19:30.026Z,40.12
2023-10-10T11:22:01.764Z,40.28
2023-10-10T11:24:32.934Z,40.46
2023-10-10T11:27:12.861Z,40.32
2023-10-10T11:29:47.263Z,39.89
2023-10-10T11:32:17.071Z,38.93
2023-10-10T11:34:47.958Z,38.68
2023-10-10T11:37:24.414Z,38.24
2023-10-10T11:39:59.370Z,38.28
2023-10-10T11:42:28.010Z,38.40
2023-10-10T11:45:02.919Z,38.65
2023-10-10T11:47:32.190Z,39.00
2023-10-10T11:50:06.765Z,39.25
2023-10-10T11:52:34.358Z,39.45
2023-10-10T11:55:01.857Z,39.74
2023-10-10T11:57:35.374Z,40.03
2023-10-10T12:00:24.299Z,40.29
2023-10-10T12:02:57.111Z,40.63
2023-10-10T12:05:31.272Z,40.57
2023-10-10T12:08:06.516Z,40.82
2023-10-10T12:10:53.493Z,40.87
2023-10-10T12:13:33.509Z,40.85
2023-10-10T12:16:13.116Z,40.83
2023-10-10T12:18:51.535Z,40.88
2023-10-10T12:21:23.301Z,40.89
2023-10-10T12:24:00.315Z,40.78
2023-10-10T12:26:37.447Z,40.59
2023-10-10T12:29:05.496Z,40.73
2023-10-10T12:31:35.680Z,40.68
2023-10-10T12:34:04.197Z,40.73
2023-10-10T12:36:33.881Z,40.48
2023-10-10T12:39:05.908Z,40.38
2023-10-10T12:41:47.680Z,40.58
2023-10-10T12:44:15.413Z,40.83
2023-10-10T12:46:42.927Z,41.14
2023-10-10T12:49:13.253Z,41.58
2023-10-10T12:51:45.904Z,41.96
2023-10-10T12:54:16.765Z,42.30
2023-10-10T12:56:55.949Z,42.54
2023-10-10T12:59:31.961Z,42.85
2023-10-10T13:02:04.391Z,42.94
2023-10-10T13:04:34.773Z,42.85
2023-10-10T13:07:05.535Z,42.80
2023-10-10T13:09:33.848Z,42.97
2023-10-10T13:12:04.977Z,42.96
2023-10-10T13:14:34.820Z,43.23
2023-10-10T13:17:31.114Z,43.03
2023-10-10T13:20:00.310Z,43.02
2023-10-10T13:22:31.017Z,43.18
2023-10-10T13:24:58.730Z,43.25
2023-10-10T13:27:26.779Z,43.38
2023-10-10T13:29:54.412Z,43.48
2023-10-10T13:32:22.133Z,43.44
2023-10-10T13:34:49.556Z,43.58
2023-10-10T13:37:17.079Z,43.61
2023-10-10T13:39:45.411Z,43.44
2023-10-10T13:42:15.843Z,43.66
2023-10-10T13:44:44.257Z,43.60
2023-10-10T13:47:12.054Z,43.85
2023-10-10T13:49:45.900Z,44.08
2023-10-10T13:52:14.514Z,43.73
2023-10-10T13:54:42.088Z,44.12
2023-10-10T13:57:11.263Z,44.10
2023-10-10T13:59:39.134Z,44.57
2023-10-10T14:02:12.082Z,44.60
2023-10-10T14:04:50.343Z,44.94
2023-10-10T14:07:18.658Z,45.33
2023-10-10T14:12:21.948Z,45.50
2023-10-10T14:14:49.835Z,45.66
2023-10-10T14:17:17.440Z,45.69
2023-10-10T14:19:44.914Z,46.23
2023-10-10T14:22:13.417Z,46.34
2023-10-10T14:24:41.363Z,46.64
2023-10-10T14:27:08.929Z,46.50
2023-10-10T14:29:43.391Z,46.66
2023-10-10T14:32:22.776Z,46.91
2023-10-10T14:34:51.877Z,47.14
2023-10-10T14:37:36.269Z,47.66
2023-10-10T14:40:10.899Z,47.66
2023-10-10T14:42:43.378Z,48.08
2023-10-10T14:45:13.998Z,48.05
2023-10-10T14:47:45.328Z,48.36
2023-10-10T14:50:14.643Z,48.56
2023-10-10T14:52:48.786Z,48.73
2023-10-10T14:55:26.123Z,49.06
2023-10-10T14:57:57.106Z,49.40
2023-10-10T15:00:25.665Z,49.63
2023-10-10T15:02:55.154Z,49.79
2023-10-10T15:05:25.303Z,50.04
2023-10-10T15:07:54.356Z,50.16
2023-10-10T15:10:25.107Z,50.22
2023-10-10T15:12:54.571Z,50.37
2023-10-10T15:15:24.687Z,50.58
2023-10-10T15:17:52.994Z,50.65
2023-10-10T15:20:20.690Z,50.75
2023-10-10T15:22:48.184Z,51.06
2023-10-10T15:25:16.661Z,51.03
2023-10-10T15:27:44.400Z,51.20
2023-10-10T15:30:12.104Z,51.56
2023-10-10T15:32:49.027Z,51.61
2023-10-10T15:35:18.556Z,51.60
2023-10-10T15:37:46.203Z,51.95
2023-10-10T15:40:14.641Z,52.01
2023-10-10T15:42:41.998Z,52.31
2023-10-10T15:45:09.593Z,52.34
2023-10-10T15:47:37.018Z,52.48
2023-10-10T15:50:05.987Z,52.54
2023-10-10T15:52:35.056Z,52.76
2023-10-10T15:55:06.939Z,52.92
2023-10-10T15:57:37.100Z,53.16
2023-10-10T16:00:11.886Z,52.97
2023-10-10T16:02:41.335Z,53.37
2023-10-10T16:05:09.369Z,53.62
2023-10-10T16:07:36.721Z,53.72
2023-10-10T16:10:04.394Z,53.84
2023-10-10T16:12:31.731Z,54.16
2023-10-10T16:15:01.543Z,54.19
2023-10-10T16:17:30.074Z,54.13
2023-10-10T16:19:59.673Z,54.37
2023-10-10T16:22:29.097Z,54.61
2023-10-10T16:24:56.596Z,54.60
2023-10-10T16:27:24.097Z,54.80
2023-10-10T16:29:56.822Z,54.91
2023-10-10T16:32:24.521Z,54.78
2023-10-10T16:34:53.539Z,55.13
2023-10-10T16:37:22.459Z,55.19
2023-10-10T16:39:51.530Z,55.57
2023-10-10T16:42:24.960Z,55.81
2023-10-10T16:44:54.904Z,56.04
2023-10-10T16:47:23.214Z,55.95
2023-10-10T16:49:51.467Z,55.95
2023-10-10T16:52:26.782Z,56.12
2023-10-10T16:54:54.542Z,56.32
2023-10-10T16:57:25.748Z,56.65
2023-10-10T16:59:57.650Z,56.76
2023-10-10T17:02:30.174Z,56.91
2023-10-10T17:05:01.980Z,57.25
2023-10-10T17:07:29.810Z,57.46
2023-10-10T17:09:58.173Z,57.81
2023-10-10T17:12:25.715Z,57.94
2023-10-10T17:14:53.214Z,58.21
2023-10-10T17:17:20.624Z,58.59
2023-10-10T17:19:48.226Z,59.06
2023-10-10T17:22:19.859Z,59.18
2023-10-10T17:24:48.489Z,59.37
2023-10-10T17:27:15.929Z,59.17
2023-10-10T17:29:43.466Z,59.35
2023-10-10T17:32:10.969Z,59.53
2023-10-10T17:34:42.163Z,59.75
2023-10-10T17:37:12.686Z,60.13
2023-10-10T17:39:40.257Z,60.23
2023-10-10T17:42:08.092Z,60.35
2023-10-10T17:44:39.542Z,60.43
2023-10-10T17:47:07.537Z,60.85
2023-10-10T17:49:36.279Z,60.97
2023-10-10T17:52:04.182Z,60.85
2023-10-10T17:54:31.803Z,61.29
2023-10-10T17:56:59.177Z,61.39
2023-10-10T17:59:26.674Z,61.20
2023-10-10T18:01:55.039Z,61.28
2023-10-10T18:04:25.092Z,61.47
2023-10-10T18:06:54.187Z,61.52
2023-10-10T18:09:21.740Z,61.51
2023-10-10T18:11:50.309Z,61.77
2023-10-10T18:14:18.834Z,62.00
2023-10-10T18:16:46.748Z,62.40
2023-10-10T18:19:19.516Z,62.49
2023-10-10T18:21:47.406Z,62.72
2023-10-10T18:24:15.113Z,63.06
2023-10-10T18:26:43.528Z,63.29
2023-10-10T18:29:11.077Z,63.12
2023-10-10T18:31:39.733Z,63.44
2023-10-10T18:34:08.182Z,63.60
2023-10-10T18:36:38.738Z,63.51
2023-10-10T18:39:13.930Z,63.36
2023-10-10T18:41:46.060Z,63.61
2023-10-10T18:44:17.052Z,63.79
2023-10-10T18:46:45.177Z,63.62
2023-10-10T18:49:14.518Z,63.71
2023-10-10T18:51:43.804Z,63.64
2023-10-10T18:54:13.680Z,63.86
2023-10-10T18:56:41.585Z,63.92
2023-10-10T18:59:09.325Z,64.00
2023-10-10T19:01:38.931Z,64.29
2023-10-10T19:04:08.777Z,64.27
2023-10-10T19:06:40.447Z,64.33
2023-10-10T19:09:12.852Z,64.36
2023-10-10T19:11:40.768Z,64.27
2023-10-10T19:14:15.427Z,64.61
2023-10-10T19:16:44.630Z,64.57
2023-10-10T19:19:12.079Z,64.84
2023-10-10T19:21:42.941Z,64.80
2023-10-10T19:24:11.307Z,65.36
2023-10-10T19:26:38.887Z,65.56
2023-10-10T19:29:08.638Z,65.84
2023-10-10T19:31:41.123Z,65.99
2023-10-10T19:34:11.493Z,65.74
2023-10-10T19:36:39.743Z,65.90
2023-10-10T19:39:11.716Z,66.07
2023-10-10T19:41:39.875Z,65.97
2023-10-10T19:44:07.531Z,66.22
2023-10-10T19:46:35.059Z,66.05
2023-10-10T19:49:02.525Z,66.44
2023-10-10T19:51:30.200Z,66.47
2023-10-10T19:54:00.412Z,66.28
2023-10-10T19:56:30.423Z,66.54
2023-10-10T19:58:58.373Z,66.48
2023-10-10T20:01:28.742Z,66.80
2023-10-10T20:03:57.043Z,66.94
2023-10-10T20:06:24.980Z,66.92
2023-10-10T20:08:55.478Z,67.27
2023-10-10T20:11:23.773Z,67.37
2023-10-10T20:13:52.930Z,67.22
2023-10-10T20:16:22.854Z,67.26
2023-10-10T20:18:56.213Z,67.08
2023-10-10T20:21:25.584Z,67.40
2023-10-10T20:23:53.115Z,67.22
2023-10-10T20:26:20.887Z,67.18
2023-10-10T20:28:51.646Z,67.16
2023-10-10T20:31:19.844Z,67.36
2023-10-10T20:33:51.589Z,67.25
2023-10-10T20:36:19.333Z,67.41
2023-10-10T20:38:46.716Z,67.46
2023-10-10T20:41:15.072Z,67.71
2023-10-10T20:43:43.491Z,67.62
2023-10-10T20:46:13.157Z,67.97
2023-10-10T20:48:40.882Z,68.12
2023-10-10T20:51:12.819Z,67.78
2023-10-10T20:53:43.574Z,68.11
2023-10-10T20:56:11.979Z,67.80
2023-10-10T20:58:39.704Z,68.10
2023-10-10T21:01:13.883Z,68.39
2023-10-10T21:03:41.951Z,68.18
2023-10-10T21:06:10.006Z,68.21
2023-10-10T21:08:37.479Z,68.47
2023-10-10T21:11:09.870Z,68.40
2023-10-10T21:13:37.706Z,68.46
2023-10-10T21:16:17.489Z,68.34
2023-10-10T21:18:48.417Z,68.44
2023-10-10T21:21:16.098Z,68.55
2023-10-10T21:25:01.284Z,68.53
2023-10-10T21:27:29.055Z,68.46
2023-10-10T21:29:56.467Z,68.15
2023-10-10T21:32:23.861Z,68.60
2023-10-10T21:34:51.455Z,68.51
2023-10-10T21:37:18.819Z,68.43
2023-10-10T21:39:48.804Z,68.22
2023-10-10T21:42:16.243Z,68.20
2023-10-10T21:44:43.746Z,68.19
2023-10-10T21:47:15.770Z,68.37
2023-10-10T21:49:43.774Z,68.52
2023-10-10T21:52:11.306Z,68.49
2023-10-10T21:54:38.868Z,68.77
2023-10-10T21:57:06.248Z,68.66
2023-10-10T21:59:34.450Z,68.76
2023-10-10T22:02:02.713Z,68.87
2023-10-10T22:04:31.295Z,68.99
2023-10-10T22:06:58.733Z,69.20
2023-10-10T22:09:26.630Z,68.74
2023-10-10T22:11:53.982Z,69.04
2023-10-10T22:14:23.020Z,68.97
2023-10-10T22:16:51.997Z,69.08
2023-10-10T22:19:21.135Z,69.34
2023-10-10T22:21:48.547Z,69.08
2023-10-10T22:24:16.018Z,69.22
2023-10-10T22:26:43.493Z,69.27
2023-10-10T22:29:12.474Z,69.61
2023-10-10T22:31:43.321Z,69.67
2023-10-10T22:34:10.846Z,69.80
2023-10-10T22:36:38.321Z,70.01
2023-10-10T22:39:08.633Z,70.05
2023-10-10T22:41:36.027Z,70.08
2023-10-10T22:44:03.540Z,70.12
2023-10-10T22:46:31.496Z,70.25
2023-10-10T22:48:58.862Z,70.40
2023-10-10T22:51:26.157Z,70.43
2023-10-10T22:53:54.377Z,70.35
2023-10-10T22:56:23.235Z,70.54
2023-10-10T22:58:51.081Z,70.63
2023-10-10T23:01:18.601Z,70.74
2023-10-10T23:03:49.005Z,70.84
2023-10-10T23:06:16.676Z,70.84
2023-10-10T23:08:44.215Z,70.73
2023-10-10T23:11:14.346Z,70.87
2023-10-10T23:13:42.114Z,70.86
2023-10-10T23:16:16.213Z,71.23
2023-10-10T23:18:44.303Z,71.01
2023-10-10T23:21:12.774Z,71.12
2023-10-10T23:23:40.176Z,71.17
2023-10-10T23:26:07.595Z,71.20
2023-10-10T23:28:35.876Z,71.09
2023-10-10T23:31:04.385Z,71.27
2023-10-10T23:33:31.979Z,71.67
2023-10-10T23:35:59.555Z,71.47
2023-10-10T23:38:26.973Z,71.35
2023-10-10T23:40:57.891Z,71.53
2023-10-10T23:43:25.288Z,71.58
2023-10-10T23:45:58.106Z,71.80
2023-10-10T23:48:33.097Z,71.88
2023-10-10T23:51:01.200Z,72.07
2023-10-10T23:53:28.759Z,72.17
2023-10-10T23:56:00.226Z,72.18
2023-10-10T23:58:30.734Z,72.15
